Time;durP1;ratioP1;P1;durP2;ratioP2;P2;SDS_P1;SDS_P2;PMS_P1;PMS_P2;Temp;Humidity;BMP_temperature;BMP_pressure;BME280_temperature;BME280_humidity;BME280_pressure;Samples;Min_cycle;Max_cycle;Signal;HPM_P1;HPM_P2
2022/04/01 00:00:09;;;;;;;3.30;0.70;;;6.80;99.90;;;-142.70;100.00;59355.34;172434;28;1413;-75
2022/04/01 00:00:16;;;;;;;3.44;0.69;;;6.80;99.90;;;-142.70;100.00;59355.34;172912;28;1527;-75
2022/04/01 00:00:22;;;;;;;3.60;0.70;;;6.80;99.90;;;-142.70;100.00;59355.34;172497;28;1062;-75
2022/04/01 00:00:28;;;;;;;1.87;0.70;;;6.90;99.90;;;-142.70;100.00;59355.34;172534;28;954;-75
2022/04/01 00:00:34;;;;;;;1.38;0.65;;;6.80;99.90;;;-142.70;100.00;59355.34;171829;28;1035;-75
2022/04/01 00:00:40;;;;;;;1.27;0.73;;;6.80;99.90;;;-142.70;100.00;59355.34;171743;28;1259;-74
2022/04/01 00:00:46;;;;;;;1.35;0.70;;;6.80;99.90;;;-142.70;100.00;59355.34;172462;28;1213;-74
2022/04/01 00:00:51;;;;;;;1.27;0.70;;;6.80;99.90;;;-142.70;100.00;59355.34;172584;28;812;-75
2022/04/01 00:00:57;;;;;;;1.35;0.70;;;6.80;99.90;;;-142.70;100.00;59355.34;172400;28;1367;-74
2022/04/01 00:01:03;;;;;;;1.33;0.70;;;6.80;99.90;;;-142.70;100.00;59355.34;173069;28;1321;-74
2022/04/01 00:01:09;;;;;;;1.25;0.70;;;6.90;99.90;;;-142.70;100.00;59355.34;173174;28;1105;-75
2022/04/01 00:01:15;;;;;;;0.93;0.70;;;6.90;99.90;;;-142.70;100.00;59355.34;173168;28;922;-75
2022/04/01 00:01:22;;;;;;;1.10;0.70;;;6.90;99.90;;;-142.70;100.00;59355.34;171198;28;987;-74
2022/04/01 00:01:27;;;;;;;1.13;0.80;;;6.90;99.90;;;-142.70;100.00;59355.34;171793;28;1414;-75
2022/04/01 00:01:33;;;;;;;1.15;0.80;;;6.90;99.90;;;-142.70;100.00;59355.34;172504;28;867;-74
2022/04/01 00:01:40;;;;;;;1.20;0.80;;;6.80;99.90;;;-142.70;100.00;59355.34;172478;28;1443;-75
2022/04/01 00:01:48;;;;;;;1.17;0.77;;;6.90;99.90;;;-142.70;100.00;59355.34;173182;28;859;-75
2022/04/01 00:01:54;;;;;;;1.18;0.80;;;6.90;99.90;;;-142.70;100.00;59355.34;171343;28;1561;-74
2022/04/01 00:02:00;;;;;;;1.15;0.80;;;6.90;99.90;;;-142.70;100.00;59355.34;172460;28;1369;-75
2022/04/01 00:02:06;;;;;;;1.30;0.80;;;6.90;99.90;;;-142.70;100.00;59355.34;171105;28;963;-75
2022/04/01 00:02:12;;;;;;;1.20;0.80;;;6.90;99.90;;;-142.70;100.00;59355.34;172425;28;1350;-75
2022/04/01 00:02:17;;;;;;;1.13;0.80;;;6.90;99.90;;;-142.70;100.00;59355.34;172518;28;950;-75
2022/04/01 00:02:24;;;;;;;1.50;0.80;;;6.90;99.90;;;-142.70;100.00;59355.34;171789;28;828;-74
2022/04/01 00:02:30;;;;;;;1.50;0.80;;;6.90;99.90;;;-142.70;100.00;59355.34;171727;28;1399;-75
2022/04/01 00:02:37;;;;;;;1.30;0.73;;;6.90;99.90;;;-142.70;100.00;59355.34;172359;28;1336;-75
2022/04/01 00:02:44;;;;;;;1.84;0.80;;;6.90;99.90;;;-142.70;100.00;59355.34;172716;28;1366;-75
2022/04/01 00:02:50;;;;;;;1.93;0.80;;;6.90;99.90;;;-142.70;100.00;59355.34;172392;28;1271;-75
2022/04/01 00:02:55;;;;;;;1.80;0.73;;;6.90;99.90;;;-142.70;100.00;59355.34;172499;28;923;-75
2022/04/01 00:03:01;;;;;;;2.47;0.70;;;6.90;99.90;;;-142.70;100.00;59355.34;173148;28;1338;-74
2022/04/01 00:03:07;;;;;;;2.50;0.80;;;6.90;99.90;;;-142.70;100.00;59355.34;172948;28;1585;-76
2022/04/01 00:03:13;;;;;;;2.10;0.80;;;6.90;99.90;;;-142.70;100.00;59355.34;172391;28;1311;-75
2022/04/01 00:03:19;;;;;;;2.03;0.80;;;6.90;99.90;;;-142.70;100.00;59355.34;173171;28;888;-74
2022/04/01 00:03:25;;;;;;;1.90;0.80;;;6.90;99.90;;;-142.70;100.00;59355.34;171430;28;1598;-75
2022/04/01 00:03:30;;;;;;;1.23;0.80;;;6.90;99.90;;;-142.70;100.00;59355.34;171827;28;883;-74
2022/04/01 00:03:36;;;;;;;1.42;0.80;;;6.90;99.90;;;-142.70;100.00;59355.34;171701;28;1495;-74
2022/04/01 00:03:42;;;;;;;1.50;0.80;;;6.90;99.90;;;-142.70;100.00;59355.34;171953;28;1314;-76
2022/04/01 00:03:48;;;;;;;1.27;0.70;;;6.90;99.90;;;-142.70;100.00;59355.34;173140;28;1306;-75
2022/04/01 00:03:54;;;;;;;1.60;0.75;;;6.90;99.90;;;-142.70;100.00;59355.34;172544;28;903;-74
2022/04/01 00:03:59;;;;;;;1.83;0.75;;;6.90;99.90;;;-142.70;100.00;59355.34;173093;28;1612;-74
2022/04/01 00:04:05;;;;;;;1.70;0.80;;;6.90;99.90;;;-142.70;100.00;59355.34;173054;28;1176;-75
2022/04/01 00:04:11;;;;;;;1.60;0.73;;;6.90;99.90;;;-142.70;100.00;59355.34;172520;28;974;-75
2022/04/01 00:04:17;;;;;;;1.60;0.70;;;7.00;99.90;;;-142.70;100.00;59355.34;171810;28;1108;-74
2022/04/01 00:04:22;;;;;;;1.40;0.63;;;6.90;99.90;;;-142.70;100.00;59355.34;172498;28;1338;-74
2022/04/01 00:04:28;;;;;;;1.10;0.60;;;6.90;99.90;;;-142.70;100.00;59355.34;172395;28;1218;-75
2022/04/01 00:04:34;;;;;;;0.90;0.60;;;6.90;99.90;;;-142.70;100.00;59355.34;172504;28;823;-74
2022/04/01 00:04:40;;;;;;;0.73;0.50;;;6.90;99.90;;;-142.70;100.00;59355.34;171763;28;1379;-75
2022/04/01 00:04:46;;;;;;;0.88;0.60;;;7.00;99.90;;;-142.70;100.00;59355.34;171802;28;907;-75
2022/04/01 00:04:52;;;;;;;0.67;0.60;;;6.90;99.90;;;-142.70;100.00;59355.34;172436;28;1681;-74
2022/04/01 00:04:58;;;;;;;0.80;0.60;;;7.00;99.90;;;-142.70;100.00;59355.34;172527;28;946;-74
2022/04/01 00:05:06;;;;;;;0.97;0.60;;;6.90;99.90;;;-142.70;100.00;59355.34;172383;28;1311;-75
2022/04/01 00:05:11;;;;;;;1.30;0.70;;;7.00;99.90;;;-142.70;100.00;59355.34;172461;28;1505;-75
2022/04/01 00:05:17;;;;;;;1.25;0.70;;;6.90;99.90;;;-142.70;100.00;59355.34;172489;28;812;-75
2022/04/01 00:05:23;;;;;;;1.58;0.80;;;6.90;99.90;;;-142.70;100.00;59355.34;172504;28;966;-74
2022/04/01 00:05:29;;;;;;;1.67;0.80;;;6.90;99.90;;;-142.70;100.00;59355.34;173679;28;1607;-74
2022/04/01 00:05:35;;;;;;;1.53;0.80;;;6.90;99.90;;;-142.70;100.00;59355.34;173096;28;1311;-75
2022/04/01 00:05:41;;;;;;;1.60;0.90;;;6.90;99.90;;;-142.70;100.00;59355.34;173788;28;1456;-75
2022/04/01 00:05:47;;;;;;;1.88;0.90;;;6.90;99.90;;;-142.70;100.00;59355.34;172505;28;1323;-75
2022/04/01 00:05:53;;;;;;;1.60;0.80;;;6.90;99.90;;;-142.70;100.00;59355.34;172467;28;1062;-75
2022/04/01 00:05:59;;;;;;;1.70;0.93;;;6.90;99.90;;;-142.70;100.00;59355.34;172426;28;1423;-75
2022/04/01 00:06:05;;;;;;;1.83;0.98;;;6.90;99.90;;;-142.70;100.00;59355.34;171813;28;836;-74
2022/04/01 00:06:11;;;;;;;1.90;0.90;;;6.90;99.90;;;-142.70;100.00;59355.34;173295;28;1410;-74
2022/04/01 00:06:17;;;;;;;1.85;0.90;;;6.90;99.90;;;-142.70;100.00;59355.34;172560;28;1224;-75
2022/04/01 00:06:22;;;;;;;3.27;0.90;;;6.90;99.90;;;-142.70;100.00;59355.34;171889;28;1347;-74
2022/04/01 00:06:28;;;;;;;3.22;0.80;;;6.90;99.90;;;-142.70;100.00;59355.34;172579;28;1426;-75
2022/04/01 00:06:34;;;;;;;2.97;0.70;;;6.90;99.90;;;-142.70;100.00;59355.34;172246;28;1500;-75
2022/04/01 00:06:40;;;;;;;2.95;0.70;;;6.90;99.90;;;-142.70;100.00;59355.34;172680;28;883;-75
2022/04/01 00:06:46;;;;;;;3.15;0.70;;;6.90;99.90;;;-142.70;100.00;59355.34;172437;28;1295;-75
2022/04/01 00:06:51;;;;;;;1.77;0.77;;;6.90;99.90;;;-142.70;100.00;59355.34;172565;28;1495;-75
2022/04/01 00:06:57;;;;;;;1.90;0.80;;;6.90;99.90;;;-142.70;100.00;59355.34;172578;28;907;-74
2022/04/01 00:07:04;;;;;;;2.10;0.88;;;6.90;99.90;;;-142.70;100.00;59355.34;172619;28;903;-74
2022/04/01 00:07:10;;;;;;;2.00;0.84;;;6.90;99.90;;;-142.70;100.00;59355.34;172628;28;907;-74
2022/04/01 00:07:17;;;;;;;1.50;0.80;;;6.90;99.90;;;-142.70;100.00;59355.34;173204;28;1299;-75
2022/04/01 00:07:22;;;;;;;1.42;0.70;;;6.90;99.90;;;-142.70;100.00;59355.34;172619;28;920;-74
2022/04/01 00:07:29;;;;;;;1.38;0.70;;;6.90;99.90;;;-142.70;100.00;59355.34;171965;28;1541;-75
2022/04/01 00:07:36;;;;;;;1.13;0.67;;;6.90;99.90;;;-142.70;100.00;59355.34;172617;28;1046;-74
2022/04/01 00:07:42;;;;;;;1.20;0.70;;;6.90;99.90;;;-142.70;100.00;59355.34;173229;28;1302;-76
2022/04/01 00:07:48;;;;;;;1.13;0.70;;;6.90;99.90;;;-142.70;100.00;59355.34;172826;28;1451;-75
2022/04/01 00:07:54;;;;;;;1.38;0.75;;;6.90;99.90;;;-142.70;100.00;59355.34;172636;28;848;-75
2022/04/01 00:08:01;;;;;;;1.43;0.73;;;6.90;99.90;;;-142.70;100.00;59355.34;172648;28;816;-75
2022/04/01 00:08:08;;;;;;;1.60;0.90;;;6.90;99.90;;;-142.70;100.00;59355.34;172603;28;950;-74
2022/04/01 00:08:13;;;;;;;1.75;0.90;;;6.90;99.90;;;-142.70;100.00;59355.34;172533;28;970;-75
2022/04/01 00:08:19;;;;;;;2.10;1.00;;;6.90;99.90;;;-142.70;100.00;59355.34;172618;28;915;-74
2022/04/01 00:08:25;;;;;;;1.88;1.00;;;6.90;99.90;;;-142.70;100.00;59355.34;172594;28;871;-75
2022/04/01 00:08:31;;;;;;;1.67;0.93;;;6.90;99.90;;;-142.70;100.00;59355.34;172623;28;935;-74
2022/04/01 00:08:37;;;;;;;1.58;0.80;;;6.90;99.90;;;-142.70;100.00;59355.34;172567;28;1224;-77
2022/04/01 00:08:42;;;;;;;1.47;0.80;;;6.90;99.90;;;-142.70;100.00;59355.34;172668;28;986;-74
2022/04/01 00:08:48;;;;;;;1.13;0.70;;;6.90;99.90;;;-142.70;100.00;59355.34;171815;28;1267;-74
2022/04/01 00:08:54;;;;;;;0.97;0.70;;;6.90;99.90;;;-142.70;100.00;59355.34;173344;28;844;-74
2022/04/01 00:09:00;;;;;;;0.88;0.70;;;6.90;99.90;;;-142.70;100.00;59355.34;173999;28;1072;-75
2022/04/01 00:09:06;;;;;;;0.90;0.75;;;6.90;99.90;;;-142.70;100.00;59355.34;172347;28;1480;-75
2022/04/01 00:09:12;;;;;;;0.90;0.77;;;6.90;99.90;;;-142.70;100.00;59355.34;171185;28;1225;-76
2022/04/01 00:09:17;;;;;;;0.90;0.73;;;6.90;99.90;;;-142.70;100.00;59355.34;171939;28;1172;-74
2022/04/01 00:09:24;;;;;;;0.90;0.70;;;6.90;99.90;;;-142.70;100.00;59355.34;172634;28;994;-74
2022/04/01 00:09:30;;;;;;;0.90;0.80;;;6.90;99.90;;;-142.70;100.00;59355.34;172492;28;1379;-75
2022/04/01 00:09:37;;;;;;;0.87;0.70;;;6.90;99.90;;;-142.70;100.00;59355.34;171877;28;1210;-74
2022/04/01 00:09:43;;;;;;;1.03;0.75;;;6.90;99.90;;;-142.70;100.00;59355.34;171949;28;973;-75
2022/04/01 00:09:49;;;;;;;1.10;0.73;;;6.90;99.90;;;-142.70;100.00;59355.34;174130;28;1273;-74
2022/04/01 00:09:54;;;;;;;1.10;0.70;;;6.90;99.90;;;-142.70;100.00;59355.34;174656;28;847;-75
2022/04/01 00:10:01;;;;;;;1.50;0.70;;;6.90;99.90;;;-142.70;100.00;59355.34;173251;28;1211;-75
2022/04/01 00:10:08;;;;;;;1.57;0.80;;;6.90;99.90;;;-142.70;100.00;59355.34;173290;28;1536;-76
2022/04/01 00:10:14;;;;;;;1.65;0.80;;;6.90;99.90;;;-142.70;100.00;59355.34;172286;28;962;-75
2022/04/01 00:10:20;;;;;;;1.85;0.90;;;6.90;99.90;;;-142.70;100.00;59355.34;172522;28;1018;-75
2022/04/01 00:10:27;;;;;;;1.80;0.90;;;6.90;99.90;;;-142.70;100.00;59355.34;173306;28;832;-74
2022/04/01 00:10:33;;;;;;;1.38;0.80;;;6.90;99.90;;;-142.70;100.00;59355.34;172575;28;1275;-74
2022/04/01 00:10:39;;;;;;;1.18;0.74;;;6.90;99.90;;;-142.70;100.00;59355.34;172496;28;1679;-75
2022/04/01 00:10:45;;;;;;;0.97;0.70;;;6.90;99.90;;;-142.70;100.00;59355.34;173180;28;1081;-75
2022/04/01 00:10:51;;;;;;;0.80;0.60;;;6.90;99.90;;;-142.70;100.00;59355.34;173213;28;1454;-76
2022/04/01 00:10:56;;;;;;;0.70;0.60;;;6.90;99.90;;;-142.70;100.00;59355.34;172546;28;1255;-76
2022/04/01 00:11:02;;;;;;;0.90;0.65;;;6.90;99.90;;;-142.70;100.00;59355.34;172056;28;800;-75
2022/04/01 00:11:08;;;;;;;0.80;0.70;;;6.90;99.90;;;-142.70;100.00;59355.34;172506;28;1411;-75
2022/04/01 00:11:14;;;;;;;0.85;0.75;;;6.90;99.90;;;-142.70;100.00;59355.34;172496;28;1235;-75
2022/04/01 00:11:20;;;;;;;0.80;0.70;;;6.90;99.90;;;-142.70;100.00;59355.34;173921;28;1287;-74
2022/04/01 00:11:26;;;;;;;0.80;0.70;;;6.90;99.90;;;-142.70;100.00;59355.34;172497;28;1402;-75
2022/04/01 00:11:32;;;;;;;0.73;0.70;;;6.90;99.90;;;-142.70;100.00;59355.34;171853;28;1260;-75
2022/04/01 00:11:37;;;;;;;0.93;0.70;;;6.90;99.90;;;-142.70;100.00;59355.34;172525;28;1222;-75
2022/04/01 00:11:43;;;;;;;1.00;0.70;;;6.90;99.90;;;-142.70;100.00;59355.34;172590;28;1312;-74
2022/04/01 00:11:49;;;;;;;1.25;0.70;;;6.90;99.90;;;-142.70;100.00;59355.34;173479;28;1251;-74
2022/04/01 00:11:55;;;;;;;1.20;0.70;;;7.00;99.90;;;-142.70;100.00;59355.34;173752;28;1237;-74
2022/04/01 00:12:01;;;;;;;1.20;0.65;;;6.90;99.90;;;-142.70;100.00;59355.34;172498;28;1259;-75
2022/04/01 00:12:09;;;;;;;0.90;0.60;;;6.90;99.90;;;-142.70;100.00;59355.34;172519;28;951;-76
2022/04/01 00:12:14;;;;;;;0.82;0.60;;;6.90;99.90;;;-142.70;100.00;59355.34;171788;28;1401;-75
2022/04/01 00:12:20;;;;;;;0.70;0.60;;;6.90;99.90;;;-142.70;100.00;59355.34;171306;28;900;-74
2022/04/01 00:12:26;;;;;;;0.85;0.60;;;6.90;99.90;;;-142.70;100.00;59355.34;172611;28;1145;-75
2022/04/01 00:12:32;;;;;;;0.93;0.60;;;6.90;99.90;;;-142.70;100.00;59355.34;172607;28;903;-75
2022/04/01 00:12:43;;;;;;;1.02;0.65;;;6.90;99.90;;;-142.70;100.00;59355.34;173168;28;1461;-74
2022/04/01 00:12:49;;;;;;;1.09;0.62;;;6.90;99.90;;;-142.70;100.00;59355.34;171861;28;1231;-76
2022/04/01 00:12:55;;;;;;;1.33;0.77;;;6.90;99.90;;;-142.70;100.00;59355.34;171831;28;1253;-75
2022/04/01 00:13:01;;;;;;;1.57;0.70;;;6.90;99.90;;;-142.70;100.00;59355.34;172006;28;891;-74
2022/04/01 00:13:07;;;;;;;1.63;0.70;;;6.90;99.90;;;-142.70;100.00;59355.34;171958;28;990;-75
2022/04/01 00:13:13;;;;;;;1.67;0.80;;;6.90;99.90;;;-142.70;100.00;59355.34;171242;28;967;-75
2022/04/01 00:13:19;;;;;;;1.43;0.73;;;6.90;99.90;;;-142.70;100.00;59355.34;171286;28;833;-76
2022/04/01 00:13:25;;;;;;;1.10;0.70;;;6.90;99.90;;;-142.70;100.00;59355.34;172002;28;876;-74
2022/04/01 00:13:31;;;;;;;0.90;0.65;;;6.90;99.90;;;-142.70;100.00;59355.34;171237;28;1205;-75
2022/04/01 00:13:37;;;;;;;0.73;0.60;;;6.90;99.90;;;-142.70;100.00;59355.34;172660;28;848;-75
2022/04/01 00:13:43;;;;;;;0.70;0.60;;;6.90;99.90;;;-142.70;100.00;59355.34;173213;28;1405;-75
2022/04/01 00:13:49;;;;;;;1.00;0.60;;;6.90;99.90;;;-142.70;100.00;59355.34;172596;28;923;-75
2022/04/01 00:13:55;;;;;;;1.10;0.60;;;6.90;99.90;;;-142.70;100.00;59355.34;171854;28;1300;-74
2022/04/01 00:14:01;;;;;;;1.02;0.60;;;6.90;99.90;;;-142.70;100.00;59355.34;171933;28;809;-75
2022/04/01 00:14:08;;;;;;;1.10;0.60;;;6.90;99.90;;;-142.70;100.00;59355.34;172540;28;1204;-75
2022/04/01 00:14:13;;;;;;;1.00;0.60;;;6.90;99.90;;;-142.70;100.00;59355.34;171808;28;1328;-75
2022/04/01 00:14:19;;;;;;;0.80;0.60;;;6.90;99.90;;;-142.70;100.00;59355.34;173240;28;1219;-75
2022/04/01 00:14:25;;;;;;;0.70;0.60;;;6.90;99.90;;;-142.70;100.00;59355.34;172672;28;1229;-74
2022/04/01 00:14:31;;;;;;;0.63;0.57;;;6.90;99.90;;;-142.70;100.00;59355.34;172576;28;910;-75
2022/04/01 00:14:38;;;;;;;0.65;0.55;;;6.90;99.90;;;-142.70;100.00;59355.34;171928;28;1470;-75
2022/04/01 00:14:43;;;;;;;1.08;0.65;;;6.90;99.90;;;-142.70;100.00;59355.34;171790;28;1438;-75
2022/04/01 00:14:49;;;;;;;1.20;0.70;;;6.90;99.90;;;-142.70;100.00;59355.34;172487;28;1223;-75
2022/04/01 00:14:55;;;;;;;1.40;0.70;;;6.90;99.90;;;-142.70;100.00;59355.34;173177;28;1231;-75
2022/04/01 00:15:01;;;;;;;1.43;0.80;;;6.90;99.90;;;-142.70;100.00;59355.34;171953;28;1070;-75
2022/04/01 00:15:09;;;;;;;1.33;0.80;;;6.90;99.90;;;-142.70;100.00;59355.34;171803;28;1322;-75
2022/04/01 00:15:15;;;;;;;0.80;0.70;;;6.90;99.90;;;-142.70;100.00;59355.34;172635;28;896;-75
2022/04/01 00:15:21;;;;;;;0.67;0.60;;;6.90;99.90;;;-142.70;100.00;59355.34;172565;28;1377;-74
2022/04/01 00:15:27;;;;;;;0.88;0.63;;;6.90;99.90;;;-142.70;100.00;59355.34;171794;28;1419;-75
2022/04/01 00:15:33;;;;;;;1.08;0.70;;;6.90;99.90;;;-142.70;100.00;59355.34;172541;28;1200;-75
2022/04/01 00:15:39;;;;;;;1.02;0.60;;;6.90;99.90;;;-142.70;100.00;59355.34;172499;28;1192;-74
2022/04/01 00:15:45;;;;;;;1.07;0.60;;;6.90;99.90;;;-142.70;100.00;59355.34;171892;28;1315;-74
2022/04/01 00:15:52;;;;;;;1.17;0.70;;;6.90;99.90;;;-142.70;100.00;59355.34;171856;28;1491;-75
2022/04/01 00:15:59;;;;;;;1.02;0.70;;;6.90;99.90;;;-142.70;100.00;59355.34;171760;28;1440;-75
2022/04/01 00:16:05;;;;;;;1.00;0.67;;;6.90;99.90;;;-142.70;100.00;59355.34;171901;28;978;-75
2022/04/01 00:16:10;;;;;;;1.13;0.70;;;6.90;99.90;;;-142.70;100.00;59355.34;172364;28;1463;-75
2022/04/01 00:16:16;;;;;;;1.20;0.65;;;6.90;99.90;;;-142.70;100.00;59355.34;173253;28;836;-74
2022/04/01 00:16:22;;;;;;;1.13;0.60;;;6.90;99.90;;;-142.70;100.00;59355.34;172592;28;915;-76
2022/04/01 00:16:28;;;;;;;1.02;0.52;;;6.90;99.90;;;-142.70;100.00;59355.34;172638;28;840;-75
2022/04/01 00:16:34;;;;;;;1.00;0.57;;;6.90;99.90;;;-142.70;100.00;59355.34;171201;28;1616;-75
2022/04/01 00:16:40;;;;;;;1.02;0.60;;;6.90;99.90;;;-142.70;100.00;59355.34;171358;28;872;-75
2022/04/01 00:16:46;;;;;;;1.00;0.60;;;6.90;99.90;;;-142.70;100.00;59355.34;172516;28;1989;-75
2022/04/01 00:16:52;;;;;;;0.98;0.68;;;6.90;99.90;;;-142.70;100.00;59355.34;172469;28;1631;-74
2022/04/01 00:16:58;;;;;;;1.17;0.70;;;6.90;99.90;;;-142.70;100.00;59355.34;173119;28;1108;-75
2022/04/01 00:17:04;;;;;;;1.10;0.60;;;6.90;99.90;;;-142.70;100.00;59355.34;174012;28;950;-74
2022/04/01 00:17:10;;;;;;;1.00;0.60;;;6.90;99.90;;;-142.70;100.00;59355.34;174558;28;1234;-75
2022/04/01 00:17:16;;;;;;;1.02;0.60;;;6.90;99.90;;;-142.70;100.00;59355.34;173823;28;1203;-75
2022/04/01 00:17:22;;;;;;;1.10;0.60;;;6.90;99.90;;;-142.70;100.00;59355.34;173301;28;1048;-76
2022/04/01 00:17:28;;;;;;;0.97;0.60;;;6.90;99.90;;;-142.70;100.00;59355.34;173221;28;1380;-75
2022/04/01 00:17:34;;;;;;;0.90;0.70;;;6.90;99.90;;;-142.70;100.00;59355.34;173759;28;1441;-74
2022/04/01 00:17:41;;;;;;;0.80;0.60;;;6.80;99.90;;;-142.70;100.00;59355.34;172526;28;1002;-74
2022/04/01 00:17:47;;;;;;;1.26;0.66;;;6.90;99.90;;;-142.70;100.00;59355.34;172517;28;1347;-75
2022/04/01 00:17:53;;;;;;;1.25;0.65;;;6.90;99.90;;;-142.70;100.00;59355.34;171899;28;1018;-74
2022/04/01 00:18:00;;;;;;;1.20;0.60;;;6.90;99.90;;;-142.70;100.00;59355.34;172817;28;1365;-74
2022/04/01 00:18:06;;;;;;;1.14;0.60;;;6.90;99.90;;;-142.70;100.00;59355.34;173855;28;1388;-75
2022/04/01 00:18:12;;;;;;;1.23;0.70;;;6.90;99.90;;;-142.70;100.00;59355.34;174739;28;965;-75
2022/04/01 00:18:17;;;;;;;0.80;0.70;;;6.90;99.90;;;-142.70;100.00;59355.34;173243;28;1499;-74
2022/04/01 00:18:23;;;;;;;0.75;0.68;;;6.90;99.90;;;-142.70;100.00;59355.34;172555;28;1000;-75
2022/04/01 00:18:29;;;;;;;0.77;0.60;;;6.90;99.90;;;-142.70;100.00;59355.34;172552;28;1327;-75
2022/04/01 00:18:35;;;;;;;1.00;0.70;;;6.90;99.90;;;-142.70;100.00;59355.34;173235;28;1268;-75
2022/04/01 00:18:41;;;;;;;1.10;0.67;;;6.90;99.90;;;-142.70;100.00;59355.34;174635;28;1261;-75
2022/04/01 00:18:46;;;;;;;1.08;0.60;;;6.90;99.90;;;-142.70;100.00;59355.34;174040;28;895;-75
2022/04/01 00:18:52;;;;;;;1.40;0.70;;;6.90;99.90;;;-142.70;100.00;59355.34;173290;28;1368;-76
2022/04/01 00:18:58;;;;;;;1.33;0.70;;;6.90;99.90;;;-142.70;100.00;59355.34;172867;28;1271;-75
2022/04/01 00:19:05;;;;;;;1.10;0.70;;;6.90;99.90;;;-142.70;100.00;59355.34;172219;28;1535;-75
2022/04/01 00:19:12;;;;;;;1.10;0.70;;;6.90;99.90;;;-142.70;100.00;59355.34;172459;28;1390;-74
2022/04/01 00:19:20;;;;;;;1.17;0.68;;;6.90;99.90;;;-142.70;100.00;59355.34;171985;28;977;-74
2022/04/01 00:19:26;;;;;;;1.10;0.60;;;6.90;99.90;;;-142.70;100.00;59355.34;173325;28;859;-75
2022/04/01 00:19:32;;;;;;;1.10;0.60;;;6.90;99.90;;;-142.70;100.00;59355.34;173899;28;1432;-76
2022/04/01 00:19:38;;;;;;;1.63;0.60;;;6.90;99.90;;;-142.70;100.00;59355.34;174091;28;807;-75
2022/04/01 00:19:44;;;;;;;1.88;0.65;;;6.90;99.90;;;-142.70;100.00;59355.34;173840;28;1190;-74
2022/04/01 00:19:50;;;;;;;1.87;0.63;;;6.90;99.90;;;-142.70;100.00;59355.34;173305;28;915;-74
2022/04/01 00:19:55;;;;;;;1.88;0.63;;;6.80;99.90;;;-142.70;100.00;59355.34;172594;28;1116;-76
2022/04/01 00:20:02;;;;;;;2.03;0.70;;;6.80;99.90;;;-142.70;100.00;59355.34;172700;28;875;-75
2022/04/01 00:20:13;;;;;;;1.20;0.63;;;6.80;99.90;;;-142.70;100.00;59355.34;172011;28;875;-75
2022/04/01 00:20:19;;;;;;;0.90;0.60;;;6.80;99.90;;;-142.70;100.00;59355.34;171908;28;1646;-75
2022/04/01 00:20:27;;;;;;;1.20;0.60;;;6.90;99.90;;;-142.70;100.00;59355.34;171972;28;840;-74
2022/04/01 00:20:33;;;;;;;0.99;0.51;;;6.80;99.90;;;-142.70;100.00;59355.34;172611;28;1035;-75
2022/04/01 00:20:39;;;;;;;1.30;0.50;;;6.90;99.90;;;-142.70;100.00;59355.34;171998;28;868;-75
2022/04/01 00:20:45;;;;;;;1.43;0.50;;;6.80;99.90;;;-142.70;100.00;59355.34;171295;28;974;-75
2022/04/01 00:20:51;;;;;;;1.57;0.50;;;6.80;99.90;;;-142.70;100.00;59355.34;171989;28;804;-75
2022/04/01 00:20:57;;;;;;;1.30;0.52;;;6.90;99.90;;;-142.70;100.00;59355.34;171416;28;1428;-75
2022/04/01 00:21:03;;;;;;;1.38;0.60;;;6.90;99.90;;;-142.70;100.00;59355.34;173240;28;1480;-75
2022/04/01 00:21:08;;;;;;;1.05;0.60;;;6.80;99.90;;;-142.70;100.00;59355.34;172005;28;1784;-75
2022/04/01 00:21:14;;;;;;;0.88;0.60;;;6.80;99.90;;;-142.70;100.00;59355.34;172596;28;852;-75
2022/04/01 00:21:20;;;;;;;0.82;0.60;;;6.80;99.90;;;-142.70;100.00;59355.34;171176;28;1549;-75
2022/04/01 00:21:26;;;;;;;0.80;0.60;;;6.80;99.90;;;-142.70;100.00;59355.34;171852;28;1240;-74
2022/04/01 00:21:32;;;;;;;0.88;0.60;;;6.80;99.90;;;-142.70;100.00;59355.34;171884;28;1331;-75
2022/04/01 00:21:37;;;;;;;1.00;0.60;;;6.90;99.90;;;-142.70;100.00;59355.34;173178;28;1601;-74
2022/04/01 00:21:43;;;;;;;1.13;0.75;;;6.90;99.90;;;-142.70;100.00;59355.34;172521;28;1475;-75
2022/04/01 00:21:49;;;;;;;1.13;0.80;;;6.90;99.90;;;-142.70;100.00;59355.34;171875;28;1287;-74
2022/04/01 00:21:55;;;;;;;1.08;0.80;;;6.90;99.90;;;-142.70;100.00;59355.34;172552;28;1205;-75
2022/04/01 00:22:02;;;;;;;1.10;0.80;;;6.90;99.90;;;-142.70;100.00;59355.34;173063;28;1337;-75
2022/04/01 00:22:08;;;;;;;1.02;0.78;;;6.80;99.90;;;-142.70;100.00;59355.34;171219;28;991;-76
2022/04/01 00:22:13;;;;;;;1.00;0.70;;;6.80;99.90;;;-142.70;100.00;59355.34;172326;28;1482;-74
2022/04/01 00:22:19;;;;;;;0.90;0.70;;;6.80;99.90;;;-142.70;100.00;59355.34;172585;28;839;-75
2022/04/01 00:22:25;;;;;;;0.93;0.60;;;6.90;99.90;;;-142.70;100.00;59355.34;172605;28;1252;-75
2022/04/01 00:22:31;;;;;;;0.90;0.60;;;6.80;99.90;;;-142.70;100.00;59355.34;173192;28;1307;-75
2022/04/01 00:22:37;;;;;;;0.80;0.60;;;6.80;99.90;;;-142.70;100.00;59355.34;173309;28;931;-76
2022/04/01 00:22:43;;;;;;;0.68;0.50;;;6.80;99.90;;;-142.70;100.00;59355.34;172581;28;1518;-75
2022/04/01 00:22:49;;;;;;;0.57;0.50;;;6.90;99.90;;;-142.70;100.00;59355.34;171901;28;1629;-75
2022/04/01 00:22:56;;;;;;;0.60;0.50;;;6.90;99.90;;;-142.70;100.00;59355.34;171887;28;1425;-74
2022/04/01 00:23:02;;;;;;;0.63;0.60;;;6.90;99.90;;;-142.70;100.00;59355.34;172174;28;1349;-75
2022/04/01 00:23:08;;;;;;;0.70;0.60;;;6.80;99.90;;;-142.70;100.00;59355.34;172542;28;1325;-75
2022/04/01 00:23:14;;;;;;;0.85;0.68;;;6.80;99.90;;;-142.70;100.00;59355.34;172555;28;875;-75
2022/04/01 00:23:20;;;;;;;0.90;0.70;;;6.80;99.90;;;-142.70;100.00;59355.34;172629;28;887;-74
2022/04/01 00:23:26;;;;;;;0.80;0.70;;;6.80;99.90;;;-142.70;100.00;59355.34;172562;28;1380;-75
2022/04/01 00:23:32;;;;;;;0.73;0.63;;;6.80;99.90;;;-142.70;100.00;59355.34;172648;28;860;-75
2022/04/01 00:23:37;;;;;;;0.73;0.70;;;6.80;99.90;;;-142.70;100.00;59355.34;172600;28;1258;-75
2022/04/01 00:23:43;;;;;;;0.70;0.70;;;6.90;99.90;;;-142.70;100.00;59355.34;172682;28;1394;-75
2022/04/01 00:23:49;;;;;;;0.77;0.70;;;6.80;99.90;;;-142.70;100.00;59355.34;173215;28;1482;-75
2022/04/01 00:23:55;;;;;;;0.80;0.70;;;6.80;99.90;;;-142.70;100.00;59355.34;172421;28;1418;-75
2022/04/01 00:24:01;;;;;;;0.80;0.70;;;6.80;99.90;;;-142.70;100.00;59355.34;172629;28;911;-75
2022/04/01 00:24:07;;;;;;;0.70;0.63;;;6.80;99.90;;;-142.70;100.00;59355.34;172017;28;860;-76
2022/04/01 00:24:13;;;;;;;0.70;0.60;;;6.80;99.90;;;-142.70;100.00;59355.34;171961;28;820;-75
2022/04/01 00:24:19;;;;;;;0.83;0.53;;;6.80;99.90;;;-142.70;100.00;59355.34;171276;28;805;-74
2022/04/01 00:24:25;;;;;;;1.00;0.60;;;6.80;99.90;;;-142.70;100.00;59355.34;172529;28;1224;-75
2022/04/01 00:24:30;;;;;;;1.30;0.60;;;6.80;99.90;;;-142.70;100.00;59355.34;172631;28;1081;-74
2022/04/01 00:24:36;;;;;;;1.42;0.60;;;6.80;99.90;;;-142.70;100.00;59355.34;172597;28;897;-75
2022/04/01 00:24:42;;;;;;;1.38;0.57;;;6.80;99.90;;;-142.70;100.00;59355.34;172660;28;935;-76
2022/04/01 00:24:48;;;;;;;1.33;0.57;;;6.80;99.90;;;-142.70;100.00;59355.34;173351;28;880;-75
2022/04/01 00:24:54;;;;;;;1.33;0.60;;;6.80;99.90;;;-142.70;100.00;59355.34;172592;28;883;-75
2022/04/01 00:24:59;;;;;;;1.15;0.55;;;6.80;99.90;;;-142.70;100.00;59355.34;173344;28;923;-75
2022/04/01 00:25:06;;;;;;;1.17;0.60;;;6.80;99.90;;;-142.70;100.00;59355.34;172587;28;780;-74
2022/04/01 00:25:12;;;;;;;1.17;0.70;;;6.80;99.90;;;-142.70;100.00;59355.34;172408;28;1466;-76
2022/04/01 00:25:18;;;;;;;1.04;0.70;;;6.80;99.90;;;-142.70;100.00;59355.34;172387;28;1459;-75
2022/04/01 00:25:24;;;;;;;0.70;0.63;;;6.80;99.90;;;-142.70;100.00;59355.34;171948;28;1196;-74
2022/04/01 00:25:30;;;;;;;0.70;0.70;;;6.80;99.90;;;-142.70;100.00;59355.34;172034;28;911;-74
2022/04/01 00:25:36;;;;;;;0.70;0.65;;;6.80;99.90;;;-142.70;100.00;59355.34;171282;28;888;-75
2022/04/01 00:25:42;;;;;;;0.80;0.70;;;6.80;99.90;;;-142.70;100.00;59355.34;171866;28;1320;-74
2022/04/01 00:25:47;;;;;;;0.82;0.70;;;6.80;99.90;;;-142.70;100.00;59355.34;171153;28;1370;-75